createdAt,value
2023-05-17T00:00:37.574Z,12.00
2023-05-17T00:03:04.557Z,12.00
2023-05-17T00:05:31.544Z,12.00
2023-05-17T00:07:58.477Z,11.90
2023-05-17T00:10:25.458Z,11.90
2023-05-17T00:12:52.368Z,11.90
2023-05-17T00:15:19.291Z,11.90
2023-05-17T00:17:46.346Z,11.80
2023-05-17T00:20:13.850Z,11.80
2023-05-17T00:22:41.197Z,11.70
2023-05-17T00:25:08.354Z,11.70
2023-05-17T00:27:35.281Z,11.60
2023-05-17T00:30:02.235Z,11.60
2023-05-17T00:32:29.401Z,11.60
2023-05-17T00:34:56.789Z,11.60
2023-05-17T00:37:23.879Z,11.50
2023-05-17T00:39:50.851Z,11.50
2023-05-17T00:42:17.795Z,11.50
2023-05-17T00:44:44.716Z,11.40
2023-05-17T00:47:11.736Z,11.50
2023-05-17T00:49:39.732Z,11.50
2023-05-17T00:52:06.887Z,11.50
2023-05-17T00:54:33.823Z,11.40
2023-05-17T00:57:01.500Z,11.40
2023-05-17T00:59:28.726Z,11.40
2023-05-17T01:01:55.791Z,11.40
2023-05-17T01:04:22.902Z,11.40
2023-05-17T01:06:50.383Z,11.30
2023-05-17T01:09:17.341Z,11.40
2023-05-17T01:11:53.120Z,11.40
2023-05-17T01:14:53.738Z,11.30
2023-05-17T01:17:26.153Z,11.30
2023-05-17T01:20:07.110Z,11.30
2023-05-17T01:22:57.121Z,11.20
2023-05-17T01:25:39.118Z,11.20
2023-05-17T01:28:06.104Z,11.10
2023-05-17T01:30:33.481Z,11.10
2023-05-17T01:33:00.568Z,11.10
2023-05-17T01:35:27.967Z,11.10
2023-05-17T01:37:55.089Z,11.10
2023-05-17T01:40:21.954Z,11.10
2023-05-17T01:43:10.734Z,11.00
2023-05-17T01:45:44.286Z,11.00
2023-05-17T01:48:41.355Z,11.00
2023-05-17T01:51:09.391Z,11.00
2023-05-17T01:53:40.679Z,10.90
2023-05-17T01:56:13.194Z,10.90
2023-05-17T01:58:45.766Z,10.90
2023-05-17T02:01:13.686Z,10.90
2023-05-17T02:03:40.796Z,10.90
2023-05-17T02:06:07.902Z,10.90
2023-05-17T02:08:34.860Z,10.80
2023-05-17T02:11:04.073Z,10.80
2023-05-17T02:13:30.921Z,10.80
2023-05-17T02:16:03.642Z,10.80
2023-05-17T02:18:32.761Z,10.80
2023-05-17T02:21:00.192Z,10.80
2023-05-17T02:23:27.406Z,10.80
2023-05-17T02:25:54.277Z,10.70
2023-05-17T02:28:21.180Z,10.80
2023-05-17T02:30:48.054Z,10.70
2023-05-17T02:33:15.086Z,10.70
2023-05-17T02:35:42.013Z,10.70
2023-05-17T02:38:08.977Z,10.70
2023-05-17T02:40:35.866Z,10.70
2023-05-17T02:43:02.739Z,10.70
2023-05-17T02:45:30.728Z,10.60
2023-05-17T02:47:57.920Z,10.60
2023-05-17T02:50:24.826Z,10.60
2023-05-17T02:52:51.800Z,10.60
2023-05-17T02:55:18.765Z,10.70
2023-05-17T02:57:46.223Z,10.60
2023-05-17T03:00:13.450Z,10.60
2023-05-17T03:02:40.483Z,10.60
2023-05-17T03:05:08.406Z,10.60
2023-05-17T03:07:35.440Z,10.60
2023-05-17T03:10:02.398Z,10.60
2023-05-17T03:12:29.822Z,10.60
2023-05-17T03:14:56.757Z,10.60
2023-05-17T03:17:23.774Z,10.60
2023-05-17T03:19:50.846Z,10.60
2023-05-17T03:22:17.893Z,10.60
2023-05-17T03:24:44.741Z,10.60
2023-05-17T03:27:11.659Z,10.60
2023-05-17T03:29:38.631Z,10.70
2023-05-17T03:32:06.009Z,10.60
2023-05-17T03:34:32.966Z,10.60
2023-05-17T03:37:00.828Z,10.70
2023-05-17T03:39:27.691Z,10.70
2023-05-17T03:41:55.615Z,10.60
2023-05-17T03:44:22.569Z,10.70
2023-05-17T03:46:49.483Z,10.60
2023-05-17T03:49:16.574Z,10.60
2023-05-17T03:51:46.504Z,10.60
2023-05-17T03:54:13.435Z,10.60
2023-05-17T03:56:40.414Z,10.60
2023-05-17T03:59:07.286Z,10.60
2023-05-17T04:01:34.164Z,10.70
2023-05-17T04:04:04.067Z,10.70
2023-05-17T04:06:31.022Z,10.70
2023-05-17T04:08:59.617Z,10.70
2023-05-17T04:11:27.666Z,10.70
2023-05-17T04:13:54.826Z,10.70
2023-05-17T04:16:22.202Z,10.70
2023-05-17T04:18:52.991Z,10.70
2023-05-17T04:21:20.161Z,10.60
2023-05-17T04:23:47.037Z,10.70
2023-05-17T04:26:15.097Z,10.70
2023-05-17T04:28:42.075Z,10.70
2023-05-17T04:31:09.040Z,10.70
2023-05-17T04:33:37.098Z,10.70
2023-05-17T04:36:04.338Z,10.70
2023-05-17T04:38:31.472Z,10.70
2023-05-17T04:41:03.382Z,10.80
2023-05-17T04:43:31.150Z,10.80
2023-05-17T04:45:58.309Z,10.80
2023-05-17T04:48:26.471Z,10.80
2023-05-17T04:50:56.373Z,10.80
2023-05-17T04:53:23.289Z,10.80
2023-05-17T04:55:50.482Z,10.80
2023-05-17T04:58:17.328Z,10.80
2023-05-17T05:00:44.470Z,10.80
2023-05-17T05:03:14.427Z,10.80
2023-05-17T05:05:41.348Z,10.80
2023-05-17T05:08:09.551Z,10.80
2023-05-17T05:10:36.563Z,10.80
2023-05-17T05:13:03.634Z,10.80
2023-05-17T05:15:31.165Z,10.90
2023-05-17T05:17:59.314Z,10.90
2023-05-17T05:20:27.945Z,10.90
2023-05-17T05:22:55.251Z,10.90
2023-05-17T05:25:22.184Z,10.90
2023-05-17T05:27:49.099Z,11.00
2023-05-17T05:30:22.709Z,11.00
2023-05-17T05:32:50.855Z,11.00
2023-05-17T05:35:18.263Z,11.10
2023-05-17T05:37:48.121Z,11.00
2023-05-17T05:40:15.709Z,11.10
2023-05-17T05:42:42.936Z,11.10
2023-05-17T05:45:11.140Z,11.20
2023-05-17T05:47:38.257Z,11.20
2023-05-17T05:50:06.526Z,11.20
2023-05-17T05:52:33.611Z,11.30
2023-05-17T05:55:00.834Z,11.30
2023-05-17T05:57:27.845Z,11.30
2023-05-17T05:59:54.804Z,11.30
2023-05-17T06:02:21.807Z,11.40
2023-05-17T06:04:48.780Z,11.50
2023-05-17T06:07:15.876Z,11.50
2023-05-17T06:09:43.205Z,11.60
2023-05-17T06:12:10.275Z,11.70
2023-05-17T06:14:38.622Z,11.70
2023-05-17T06:17:05.703Z,11.80
2023-05-17T06:19:32.918Z,11.90
2023-05-17T06:22:00.257Z,12.00
2023-05-17T06:24:27.106Z,12.10
2023-05-17T06:26:57.045Z,12.20
2023-05-17T06:29:24.324Z,12.30
2023-05-17T06:31:51.334Z,12.50
2023-05-17T06:34:20.919Z,12.50
2023-05-17T06:36:47.865Z,12.70
2023-05-17T06:39:20.242Z,12.70
2023-05-17T06:41:47.229Z,12.80
2023-05-17T06:44:14.506Z,12.90
2023-05-17T06:46:41.436Z,13.00
2023-05-17T06:49:08.561Z,13.10
2023-05-17T06:51:35.651Z,13.20
2023-05-17T06:54:09.741Z,13.30
2023-05-17T06:56:39.404Z,13.40
2023-05-17T06:59:06.443Z,13.50
2023-05-17T07:01:37.085Z,13.60
2023-05-17T07:04:06.856Z,13.80
2023-05-17T07:06:34.260Z,13.90
2023-05-17T07:09:06.312Z,14.00
2023-05-17T07:11:37.457Z,14.10
2023-05-17T07:14:04.603Z,14.20
2023-05-17T07:16:31.589Z,14.30
2023-05-17T07:18:58.806Z,14.40
2023-05-17T07:21:26.079Z,14.50
2023-05-17T07:23:53.148Z,14.50
2023-05-17T07:26:20.430Z,14.60
2023-05-17T07:28:48.231Z,14.60
2023-05-17T07:31:18.034Z,14.70
2023-05-17T07:33:48.126Z,14.80
2023-05-17T07:36:15.445Z,14.90
2023-05-17T07:38:42.582Z,15.00
2023-05-17T07:41:11.731Z,15.10
2023-05-17T07:43:38.849Z,15.30
2023-05-17T07:46:05.950Z,15.40
2023-05-17T07:48:32.933Z,15.40
2023-05-17T07:51:02.646Z,15.50
2023-05-17T07:53:29.536Z,15.60
2023-05-17T07:55:56.511Z,15.70
2023-05-17T07:58:23.555Z,15.90
2023-05-17T08:00:55.244Z,15.90
2023-05-17T08:03:28.611Z,16.00
2023-05-17T08:06:04.144Z,16.10
2023-05-17T08:08:31.463Z,16.20
2023-05-17T08:10:58.432Z,16.20
2023-05-17T08:13:25.357Z,16.30
2023-05-17T08:15:58.457Z,16.40
2023-05-17T08:18:28.615Z,16.40
2023-05-17T08:20:55.524Z,16.50
2023-05-17T08:23:22.625Z,16.50
2023-05-17T08:25:52.671Z,16.60
2023-05-17T08:28:19.664Z,16.60
2023-05-17T08:30:46.936Z,16.60
2023-05-17T08:33:13.975Z,16.70
2023-05-17T08:35:41.409Z,16.80
2023-05-17T08:38:08.588Z,16.90
2023-05-17T08:40:35.565Z,16.90
2023-05-17T08:43:02.735Z,17.00
2023-05-17T08:45:29.966Z,17.00
2023-05-17T08:47:57.226Z,17.10
2023-05-17T08:50:25.244Z,17.20
2023-05-17T08:52:52.532Z,17.20
2023-05-17T08:55:20.454Z,17.30
2023-05-17T08:57:47.757Z,17.30
2023-05-17T09:00:16.253Z,17.30
2023-05-17T09:02:46.085Z,17.40
2023-05-17T09:05:14.440Z,17.40
2023-05-17T09:07:42.503Z,17.50
2023-05-17T09:10:09.947Z,17.60
2023-05-17T09:12:36.826Z,17.60
2023-05-17T09:15:14.376Z,17.60
2023-05-17T09:17:44.431Z,17.60
2023-05-17T09:20:11.804Z,17.70
2023-05-17T09:22:38.775Z,17.70
2023-05-17T09:25:06.206Z,17.80
2023-05-17T09:27:33.147Z,17.80
2023-05-17T09:30:00.234Z,17.80
2023-05-17T09:32:28.570Z,17.80
2023-05-17T09:34:59.141Z,17.80
2023-05-17T09:37:26.633Z,17.80
2023-05-17T09:39:55.037Z,17.90
2023-05-17T09:42:22.215Z,18.00
2023-05-17T09:44:52.100Z,18.10
2023-05-17T09:47:29.758Z,18.20
2023-05-17T09:50:00.941Z,18.20
2023-05-17T09:52:35.294Z,18.20
2023-05-17T09:55:02.456Z,18.20
2023-05-17T09:57:37.044Z,18.30
2023-05-17T10:00:09.650Z,18.30
2023-05-17T10:02:37.289Z,18.40
2023-05-17T10:05:10.949Z,18.50
2023-05-17T10:07:38.226Z,18.60
2023-05-17T10:10:06.956Z,18.70
2023-05-17T10:12:35.410Z,18.80
2023-05-17T10:15:02.435Z,18.90
2023-05-17T10:17:30.357Z,18.90
2023-05-17T10:19:58.161Z,18.90
2023-05-17T10:22:25.317Z,18.90
2023-05-17T10:24:52.310Z,19.00
2023-05-17T10:27:19.758Z,19.00
2023-05-17T10:29:59.078Z,19.10
2023-05-17T10:32:43.304Z,19.10
2023-05-17T10:35:15.876Z,19.10
2023-05-17T10:37:49.498Z,19.10
2023-05-17T10:40:17.663Z,19.10
2023-05-17T10:42:56.815Z,19.10
2023-05-17T10:45:27.665Z,19.20
2023-05-17T10:48:01.510Z,19.30
2023-05-17T10:50:28.848Z,19.40
2023-05-17T10:52:56.578Z,19.30
2023-05-17T10:55:28.670Z,19.40
2023-05-17T10:58:12.252Z,19.40
2023-05-17T11:00:42.917Z,19.40
2023-05-17T11:03:14.331Z,19.50
2023-05-17T11:06:12.781Z,19.60
2023-05-17T11:09:08.101Z,19.60
2023-05-17T11:11:35.094Z,19.70
2023-05-17T11:14:06.066Z,19.70
2023-05-17T11:16:36.943Z,19.80
2023-05-17T11:19:11.450Z,19.90
2023-05-17T11:21:48.213Z,19.80
2023-05-17T11:24:17.066Z,19.80
2023-05-17T11:26:45.781Z,19.80
2023-05-17T11:29:13.113Z,19.80
2023-05-17T11:31:53.231Z,19.80
2023-05-17T11:34:20.145Z,19.90
2023-05-17T11:36:52.385Z,20.00
2023-05-17T11:39:23.632Z,20.00
2023-05-17T11:41:51.934Z,20.10
2023-05-17T11:44:29.862Z,20.20
2023-05-17T11:47:07.251Z,20.20
2023-05-17T11:49:37.268Z,20.10
2023-05-17T11:52:07.805Z,20.00
2023-05-17T11:54:35.155Z,19.90
2023-05-17T11:57:04.780Z,19.90
2023-05-17T11:59:38.919Z,19.80
2023-05-17T12:02:05.983Z,19.70
2023-05-17T12:04:35.796Z,19.70
2023-05-17T12:07:02.788Z,19.60
2023-05-17T12:09:29.884Z,19.50
2023-05-17T12:11:57.331Z,19.40
2023-05-17T12:14:24.242Z,19.40
2023-05-17T12:16:52.757Z,19.40
2023-05-17T12:19:20.550Z,19.40
2023-05-17T12:21:47.656Z,19.30
2023-05-17T12:24:14.914Z,19.20
2023-05-17T12:26:46.136Z,19.20
2023-05-17T12:29:18.051Z,19.20
2023-05-17T12:31:48.256Z,19.20
2023-05-17T12:34:16.865Z,19.20
2023-05-17T12:36:43.957Z,19.20
2023-05-17T12:39:14.606Z,19.20
2023-05-17T12:41:41.759Z,19.10
2023-05-17T12:44:15.197Z,19.20
2023-05-17T12:46:48.112Z,19.30
2023-05-17T12:49:15.277Z,19.30
2023-05-17T12:51:45.552Z,19.30
2023-05-17T12:54:19.079Z,19.40
2023-05-17T12:56:46.638Z,19.50
2023-05-17T12:59:16.897Z,19.50
2023-05-17T13:01:48.307Z,19.50
2023-05-17T13:04:15.899Z,19.50
2023-05-17T13:06:47.702Z,19.50
2023-05-17T13:09:15.921Z,19.60
2023-05-17T13:11:45.964Z,19.70
2023-05-17T13:14:13.144Z,19.70
2023-05-17T13:16:41.139Z,19.80
2023-05-17T13:19:17.209Z,19.90
2023-05-17T13:21:44.583Z,20.00
2023-05-17T13:24:11.642Z,20.10
2023-05-17T13:26:38.726Z,20.10
2023-05-17T13:29:05.800Z,20.10
2023-05-17T13:31:33.164Z,20.10
2023-05-17T13:34:00.272Z,20.20
2023-05-17T13:36:27.241Z,20.20
2023-05-17T13:38:54.387Z,20.20
2023-05-17T13:41:21.348Z,20.20
2023-05-17T13:43:48.274Z,20.20
2023-05-17T13:46:15.289Z,20.30
2023-05-17T13:48:42.915Z,20.30
2023-05-17T13:51:10.175Z,20.30
2023-05-17T13:53:38.832Z,20.30
2023-05-17T13:56:06.695Z,20.30
2023-05-17T13:58:33.664Z,20.30
2023-05-17T14:01:00.596Z,20.30
2023-05-17T14:03:27.754Z,20.30
2023-05-17T14:05:54.998Z,20.30
2023-05-17T14:08:22.022Z,20.30
2023-05-17T14:10:48.996Z,20.20
2023-05-17T14:13:16.075Z,20.20
2023-05-17T14:15:45.585Z,20.20
2023-05-17T14:18:13.176Z,20.20
2023-05-17T14:20:40.326Z,20.20
2023-05-17T14:23:07.698Z,20.20
2023-05-17T14:25:34.738Z,20.20
2023-05-17T14:28:01.703Z,20.10
2023-05-17T14:30:28.857Z,20.20
2023-05-17T14:32:56.056Z,20.20
2023-05-17T14:35:23.148Z,20.20
2023-05-17T14:37:50.167Z,20.10
2023-05-17T14:40:17.038Z,20.10
2023-05-17T14:42:44.013Z,20.10
2023-05-17T14:45:11.281Z,20.00
2023-05-17T14:47:38.686Z,20.00
2023-05-17T14:50:06.293Z,19.90
2023-05-17T14:52:34.915Z,19.90
2023-05-17T14:55:02.104Z,19.90
2023-05-17T14:57:29.169Z,19.90
2023-05-17T14:59:56.482Z,19.90
2023-05-17T15:02:23.439Z,19.90
2023-05-17T15:04:50.449Z,19.90
2023-05-17T15:07:17.469Z,19.90
2023-05-17T15:09:44.452Z,19.90
2023-05-17T15:12:13.884Z,19.90
2023-05-17T15:14:41.119Z,19.90
2023-05-17T15:17:08.519Z,19.90
2023-05-17T15:19:35.522Z,19.90
2023-05-17T15:22:02.548Z,19.80
2023-05-17T15:24:29.806Z,19.60
2023-05-17T15:26:56.971Z,19.60
2023-05-17T15:29:24.028Z,19.60
2023-05-17T15:31:51.293Z,19.50
2023-05-17T15:34:18.403Z,19.40
2023-05-17T15:36:45.992Z,19.40
2023-05-17T15:39:14.019Z,19.30
2023-05-17T15:41:41.103Z,19.30
2023-05-17T15:44:09.224Z,19.30
2023-05-17T15:46:36.384Z,19.30
2023-05-17T15:49:03.433Z,19.30
2023-05-17T15:51:30.565Z,19.40
2023-05-17T15:53:57.574Z,19.40
2023-05-17T15:56:24.743Z,19.40
2023-05-17T15:58:51.855Z,19.40
2023-05-17T16:01:19.015Z,19.40
2023-05-17T16:03:47.030Z,19.40
2023-05-17T16:06:16.839Z,19.40
2023-05-17T16:08:43.995Z,19.40
2023-05-17T16:11:14.141Z,19.20
2023-05-17T16:13:43.787Z,19.10
2023-05-17T16:16:10.974Z,19.10
2023-05-17T16:18:38.115Z,19.00
2023-05-17T16:21:05.543Z,19.00
2023-05-17T16:23:32.828Z,18.90
2023-05-17T16:26:00.103Z,18.80
2023-05-17T16:28:27.043Z,18.80
2023-05-17T16:30:54.540Z,18.80
2023-05-17T16:33:21.744Z,18.70
2023-05-17T16:35:49.291Z,18.60
2023-05-17T16:38:16.729Z,18.60
2023-05-17T16:40:43.817Z,18.60
2023-05-17T16:43:15.969Z,18.60
2023-05-17T16:45:46.470Z,18.50
2023-05-17T16:48:17.687Z,18.50
2023-05-17T16:50:44.700Z,18.40
2023-05-17T16:53:12.404Z,18.40
2023-05-17T16:55:39.344Z,18.40
2023-05-17T16:58:06.523Z,18.40
2023-05-17T17:00:33.839Z,18.40
2023-05-17T17:03:01.281Z,18.30
2023-05-17T17:05:28.426Z,18.30
2023-05-17T17:07:55.429Z,18.30
2023-05-17T17:10:22.292Z,18.30
2023-05-17T17:12:49.402Z,18.30
2023-05-17T17:15:16.479Z,18.20
2023-05-17T17:17:43.537Z,18.20
2023-05-17T17:20:13.526Z,18.30
2023-05-17T17:22:42.630Z,18.30
2023-05-17T17:25:10.097Z,18.30
2023-05-17T17:27:37.008Z,18.30
2023-05-17T17:30:04.331Z,18.20
2023-05-17T17:32:31.714Z,18.20
2023-05-17T17:34:58.932Z,18.20
2023-05-17T17:37:26.264Z,18.10
2023-05-17T17:39:53.386Z,18.10
2023-05-17T17:42:20.872Z,18.00
2023-05-17T17:44:47.946Z,18.00
2023-05-17T17:47:14.993Z,18.00
2023-05-17T17:49:42.186Z,18.00
2023-05-17T17:54:46.132Z,17.80
2023-05-17T17:57:13.381Z,17.80
2023-05-17T17:59:40.465Z,17.80
2023-05-17T18:02:07.358Z,17.80
2023-05-17T18:04:34.308Z,17.80
2023-05-17T18:07:02.135Z,17.80
2023-05-17T18:09:29.047Z,17.80
2023-05-17T18:11:57.235Z,17.80
2023-05-17T18:14:24.237Z,17.80
2023-05-17T18:16:51.252Z,17.70
2023-05-17T18:19:18.252Z,17.70
2023-05-17T18:21:45.220Z,17.70
2023-05-17T18:24:12.543Z,17.70
2023-05-17T18:26:39.365Z,17.60
2023-05-17T18:29:06.190Z,17.60
2023-05-17T18:31:33.099Z,17.50
2023-05-17T18:34:00.013Z,17.50
2023-05-17T18:36:27.679Z,17.40
2023-05-17T18:38:58.662Z,17.40
2023-05-17T18:41:26.391Z,17.30
2023-05-17T18:43:53.364Z,17.30
2023-05-17T18:46:20.409Z,17.30
2023-05-17T18:48:47.347Z,17.30
2023-05-17T18:51:15.824Z,17.20
2023-05-17T18:53:42.781Z,17.10
2023-05-17T18:56:09.892Z,17.10
2023-05-17T18:58:36.720Z,17.00
2023-05-17T19:01:03.784Z,16.90
2023-05-17T19:03:31.262Z,16.80
2023-05-17T19:05:58.229Z,16.80
2023-05-17T19:08:25.132Z,16.80
2023-05-17T19:10:52.030Z,16.70
2023-05-17T19:13:18.990Z,16.60
2023-05-17T19:15:46.079Z,16.50
2023-05-17T19:18:13.072Z,16.30
2023-05-17T19:20:40.197Z,16.30
2023-05-17T19:23:07.156Z,16.20
2023-05-17T19:25:34.032Z,16.20
2023-05-17T19:28:01.079Z,16.10
2023-05-17T19:30:30.314Z,16.10
2023-05-17T19:32:58.898Z,16.10
2023-05-17T19:35:25.832Z,16.00
2023-05-17T19:37:52.756Z,16.00
2023-05-17T19:40:22.218Z,16.00
2023-05-17T19:42:49.484Z,15.90
2023-05-17T19:45:17.403Z,15.90
2023-05-17T19:47:44.364Z,15.90
2023-05-17T19:50:11.868Z,15.80
2023-05-17T19:52:39.428Z,15.80
2023-05-17T19:55:07.045Z,15.80
2023-05-17T19:57:34.004Z,15.80
2023-05-17T20:00:00.952Z,15.80
2023-05-17T20:02:28.057Z,15.80
2023-05-17T20:04:55.552Z,15.70
2023-05-17T20:07:26.163Z,15.70
2023-05-17T20:09:53.540Z,15.70
2023-05-17T20:12:20.736Z,15.70
2023-05-17T20:14:47.790Z,15.70
2023-05-17T20:17:14.756Z,15.60
2023-05-17T20:19:41.906Z,15.60
2023-05-17T20:22:08.850Z,15.60
2023-05-17T20:24:35.958Z,15.50
2023-05-17T20:27:03.519Z,15.50
2023-05-17T20:29:30.566Z,15.50
2023-05-17T20:31:57.640Z,15.40
2023-05-17T20:34:28.292Z,15.40
2023-05-17T20:36:56.374Z,15.40
2023-05-17T20:39:23.682Z,15.30
2023-05-17T20:41:51.070Z,15.30
2023-05-17T20:44:18.904Z,15.30
2023-05-17T20:46:49.269Z,15.30
2023-05-17T20:49:17.008Z,15.30
2023-05-17T20:51:44.011Z,15.30
2023-05-17T20:54:11.274Z,15.20
2023-05-17T20:56:39.071Z,15.20
2023-05-17T20:59:06.887Z,15.20
2023-05-17T21:01:34.410Z,15.20
2023-05-17T21:04:01.584Z,15.20
2023-05-17T21:06:30.907Z,15.10
2023-05-17T21:09:02.604Z,15.10
2023-05-17T21:11:29.991Z,15.00
2023-05-17T21:14:00.070Z,15.00
2023-05-17T21:16:27.107Z,15.00
2023-05-17T21:18:54.099Z,14.90
2023-05-17T21:21:21.607Z,14.90
2023-05-17T21:23:49.329Z,14.90
2023-05-17T21:26:16.407Z,14.90
2023-05-17T21:28:43.353Z,14.90
2023-05-17T21:31:16.878Z,14.80
2023-05-17T21:33:44.068Z,14.80
2023-05-17T21:36:14.122Z,14.80
2023-05-17T21:38:41.036Z,14.70
2023-05-17T21:41:07.995Z,14.80
2023-05-17T21:43:34.917Z,14.70
2023-05-17T21:46:01.973Z,14.80
2023-05-17T21:48:28.951Z,14.70
2023-05-17T21:50:55.923Z,14.70
2023-05-17T21:53:23.064Z,14.80
2023-05-17T21:56:01.185Z,14.70
2023-05-17T21:58:28.833Z,14.70
2023-05-17T22:00:56.297Z,14.70
2023-05-17T22:03:23.454Z,14.70
2023-05-17T22:05:51.078Z,14.70
2023-05-17T22:08:18.008Z,14.70
2023-05-17T22:10:44.944Z,14.70
2023-05-17T22:13:12.689Z,14.70
2023-05-17T22:15:41.619Z,14.70
2023-05-17T22:18:09.042Z,14.70
2023-05-17T22:20:35.956Z,14.70
2023-05-17T22:23:03.216Z,14.70
2023-05-17T22:25:30.139Z,14.70
2023-05-17T22:27:56.974Z,14.70
2023-05-17T22:30:23.821Z,14.60
2023-05-17T22:32:54.705Z,14.60
2023-05-17T22:35:21.799Z,14.60
2023-05-17T22:37:51.872Z,14.60
2023-05-17T22:40:18.925Z,14.50
2023-05-17T22:42:46.329Z,14.50
2023-05-17T22:45:14.535Z,14.50
2023-05-17T22:47:44.087Z,14.40
2023-05-17T22:50:12.124Z,14.40
2023-05-17T22:52:41.262Z,14.40
2023-05-17T22:55:09.182Z,14.40
2023-05-17T22:57:36.183Z,14.40
2023-05-17T23:00:06.297Z,14.30
2023-05-17T23:02:33.269Z,14.30
2023-05-17T23:05:03.779Z,14.30
2023-05-17T23:07:37.114Z,14.20
2023-05-17T23:10:08.907Z,14.20
2023-05-17T23:12:37.091Z,14.20
2023-05-17T23:15:05.178Z,14.10
2023-05-17T23:17:34.130Z,14.10
2023-05-17T23:20:07.051Z,14.10
2023-05-17T23:22:34.413Z,14.10
2023-05-17T23:25:03.455Z,14.00
2023-05-17T23:27:30.551Z,14.00
2023-05-17T23:29:57.574Z,14.00
2023-05-17T23:32:24.491Z,14.00
2023-05-17T23:34:54.218Z,14.00
2023-05-17T23:37:21.274Z,14.00
2023-05-17T23:39:48.120Z,14.00
2023-05-17T23:42:14.979Z,13.90
2023-05-17T23:44:46.550Z,13.90
2023-05-17T23:47:13.443Z,13.90
2023-05-17T23:49:40.277Z,13.90
2023-05-17T23:52:11.271Z,13.80
2023-05-17T23:54:39.062Z,13.80
2023-05-17T23:57:06.502Z,13.80
2023-05-17T23:59:34.118Z,13.80
